sensor_id;sensor_type;location;lat;lon;timestamp;pressure;altitude;pressure_sealevel;temperature;humidity
68141;BME280;54941;52.220;104.306;2023-08-06T00:02:09;95244.78;;;18.59;81.80
68141;BME280;54941;52.220;104.306;2023-08-06T00:04:36;95242.00;;;18.60;81.81
68141;BME280;54941;52.220;104.306;2023-08-06T00:07:02;95246.28;;;18.63;82.02
68141;BME280;54941;52.220;104.306;2023-08-06T00:09:29;95246.97;;;18.67;81.06
68141;BME280;54941;52.220;104.306;2023-08-06T00:11:55;95238.03;;;18.91;80.37
68141;BME280;54941;52.220;104.306;2023-08-06T00:14:21;95238.16;;;18.90;80.39
68141;BME280;54941;52.220;104.306;2023-08-06T00:16:48;95235.28;;;18.80;80.41
68141;BME280;54941;52.220;104.306;2023-08-06T00:19:15;95231.19;;;19.24;78.02
68141;BME280;54941;52.220;104.306;2023-08-06T00:21:42;95237.28;;;19.26;78.22
68141;BME280;54941;52.220;104.306;2023-08-06T00:24:08;95241.00;;;19.36;78.06
68141;BME280;54941;52.220;104.306;2023-08-06T00:26:34;95241.84;;;19.37;77.10
68141;BME280;54941;52.220;104.306;2023-08-06T00:29:01;95240.41;;;19.44;77.11
68141;BME280;54941;52.220;104.306;2023-08-06T00:31:27;95241.16;;;19.46;76.27
68141;BME280;54941;52.220;104.306;2023-08-06T00:33:53;95247.03;;;19.27;77.38
68141;BME280;54941;52.220;104.306;2023-08-06T00:36:21;95241.84;;;19.37;77.55
68141;BME280;54941;52.220;104.306;2023-08-06T00:38:47;95238.03;;;19.76;75.70
68141;BME280;54941;52.220;104.306;2023-08-06T00:41:14;95246.38;;;19.60;76.04
68141;BME280;54941;52.220;104.306;2023-08-06T00:43:40;95239.72;;;19.77;75.67
68141;BME280;54941;52.220;104.306;2023-08-06T00:46:06;95238.09;;;19.63;75.90
68141;BME280;54941;52.220;104.306;2023-08-06T00:48:33;95236.78;;;20.04;74.25
68141;BME280;54941;52.220;104.306;2023-08-06T00:50:59;95239.13;;;19.73;76.52
68141;BME280;54941;52.220;104.306;2023-08-06T00:53:28;95241.78;;;19.73;75.95
68141;BME280;54941;52.220;104.306;2023-08-06T00:55:54;95237.44;;;19.84;75.14
68141;BME280;54941;52.220;104.306;2023-08-06T00:58:20;95235.63;;;19.84;75.23
68141;BME280;54941;52.220;104.306;2023-08-06T01:00:47;95237.84;;;19.66;75.78
68141;BME280;54941;52.220;104.306;2023-08-06T01:03:14;95246.50;;;19.94;75.20
68141;BME280;54941;52.220;104.306;2023-08-06T01:05:40;95237.97;;;20.00;73.21
68141;BME280;54941;52.220;104.306;2023-08-06T01:08:15;95248.47;;;20.14;72.16
68141;BME280;54941;52.220;104.306;2023-08-06T01:10:53;95236.94;;;20.25;72.01
68141;BME280;54941;52.220;104.306;2023-08-06T01:13:30;95241.50;;;20.00;72.55
68141;BME280;54941;52.220;104.306;2023-08-06T01:15:59;95242.16;;;20.04;71.51
68141;BME280;54941;52.220;104.306;2023-08-06T01:18:26;95239.56;;;20.60;69.71
68141;BME280;54941;52.220;104.306;2023-08-06T01:20:54;95230.78;;;20.47;70.65
68141;BME280;54941;52.220;104.306;2023-08-06T01:23:20;95224.69;;;20.67;69.04
68141;BME280;54941;52.220;104.306;2023-08-06T01:25:52;95235.25;;;20.35;71.30
68141;BME280;54941;52.220;104.306;2023-08-06T01:28:27;95236.66;;;20.52;69.58
68141;BME280;54941;52.220;104.306;2023-08-06T01:30:59;95236.38;;;20.44;69.03
68141;BME280;54941;52.220;104.306;2023-08-06T01:33:28;95232.44;;;20.36;69.90
68141;BME280;54941;52.220;104.306;2023-08-06T01:35:59;95242.38;;;20.12;70.71
68141;BME280;54941;52.220;104.306;2023-08-06T01:38:25;95230.84;;;20.23;70.45
68141;BME280;54941;52.220;104.306;2023-08-06T01:40:51;95225.00;;;20.29;70.36
68141;BME280;54941;52.220;104.306;2023-08-06T01:43:18;95227.47;;;19.86;71.45
68141;BME280;54941;52.220;104.306;2023-08-06T01:45:44;95233.50;;;19.76;71.87
68141;BME280;54941;52.220;104.306;2023-08-06T01:48:10;95234.22;;;20.14;71.50
68141;BME280;54941;52.220;104.306;2023-08-06T01:50:37;95234.00;;;20.17;71.51
68141;BME280;54941;52.220;104.306;2023-08-06T01:53:05;95231.78;;;20.10;69.87
68141;BME280;54941;52.220;104.306;2023-08-06T01:55:31;95232.13;;;19.95;71.53
68141;BME280;54941;52.220;104.306;2023-08-06T01:57:57;95234.28;;;19.90;71.51
68141;BME280;54941;52.220;104.306;2023-08-06T02:00:23;95234.94;;;19.93;71.59
68141;BME280;54941;52.220;104.306;2023-08-06T02:02:49;95228.63;;;19.70;71.79
68141;BME280;54941;52.220;104.306;2023-08-06T02:05:16;95234.44;;;19.99;71.04
68141;BME280;54941;52.220;104.306;2023-08-06T02:07:42;95245.03;;;20.01;72.20
68141;BME280;54941;52.220;104.306;2023-08-06T02:10:10;95245.09;;;20.23;70.75
68141;BME280;54941;52.220;104.306;2023-08-06T02:12:37;95240.59;;;19.77;72.23
68141;BME280;54941;52.220;104.306;2023-08-06T02:15:04;95241.66;;;19.51;71.95
68141;BME280;54941;52.220;104.306;2023-08-06T02:17:33;95242.75;;;19.24;72.98
68141;BME280;54941;52.220;104.306;2023-08-06T02:20:00;95238.75;;;19.54;72.32
68141;BME280;54941;52.220;104.306;2023-08-06T02:22:26;95243.91;;;19.20;74.04
68141;BME280;54941;52.220;104.306;2023-08-06T02:24:52;95233.22;;;19.57;73.03
68141;BME280;54941;52.220;104.306;2023-08-06T02:27:20;95234.59;;;19.26;75.27
68141;BME280;54941;52.220;104.306;2023-08-06T02:29:46;95232.50;;;19.66;72.46
68141;BME280;54941;52.220;104.306;2023-08-06T02:32:13;95236.34;;;19.86;71.89
68141;BME280;54941;52.220;104.306;2023-08-06T02:34:39;95234.84;;;19.71;72.84
68141;BME280;54941;52.220;104.306;2023-08-06T02:37:05;95236.06;;;19.78;72.26
68141;BME280;54941;52.220;104.306;2023-08-06T02:39:31;95232.91;;;20.19;70.87
68141;BME280;54941;52.220;104.306;2023-08-06T02:41:58;95230.91;;;20.45;68.60
68141;BME280;54941;52.220;104.306;2023-08-06T02:44:27;95229.91;;;20.46;68.45
68141;BME280;54941;52.220;104.306;2023-08-06T02:46:53;95222.72;;;20.47;68.89
68141;BME280;54941;52.220;104.306;2023-08-06T02:49:19;95225.59;;;20.21;69.83
68141;BME280;54941;52.220;104.306;2023-08-06T02:51:48;95231.50;;;19.91;72.35
68141;BME280;54941;52.220;104.306;2023-08-06T02:54:14;95233.09;;;19.94;71.72
68141;BME280;54941;52.220;104.306;2023-08-06T02:56:43;95224.47;;;20.13;70.52
68141;BME280;54941;52.220;104.306;2023-08-06T02:59:09;95226.56;;;20.20;70.08
68141;BME280;54941;52.220;104.306;2023-08-06T03:01:37;95221.91;;;20.11;70.61
68141;BME280;54941;52.220;104.306;2023-08-06T03:04:04;95225.22;;;20.26;69.64
68141;BME280;54941;52.220;104.306;2023-08-06T03:06:32;95225.56;;;20.10;70.22
68141;BME280;54941;52.220;104.306;2023-08-06T03:08:59;95224.69;;;20.45;69.06
68141;BME280;54941;52.220;104.306;2023-08-06T03:11:25;95223.84;;;19.98;71.26
68141;BME280;54941;52.220;104.306;2023-08-06T03:13:52;95223.66;;;20.23;71.05
68141;BME280;54941;52.220;104.306;2023-08-06T03:16:18;95220.13;;;20.34;69.62
68141;BME280;54941;52.220;104.306;2023-08-06T03:18:46;95218.84;;;20.51;68.79
68141;BME280;54941;52.220;104.306;2023-08-06T03:21:12;95223.44;;;20.49;68.82
68141;BME280;54941;52.220;104.306;2023-08-06T03:23:38;95215.19;;;20.52;69.12
68141;BME280;54941;52.220;104.306;2023-08-06T03:26:04;95214.22;;;20.64;68.89
68141;BME280;54941;52.220;104.306;2023-08-06T03:28:31;95212.50;;;20.52;68.43
68141;BME280;54941;52.220;104.306;2023-08-06T03:31:00;95219.31;;;20.45;69.46
68141;BME280;54941;52.220;104.306;2023-08-06T03:33:26;95215.53;;;20.58;67.97
68141;BME280;54941;52.220;104.306;2023-08-06T03:35:54;95218.69;;;20.41;69.01
68141;BME280;54941;52.220;104.306;2023-08-06T03:38:20;95218.59;;;20.76;67.81
68141;BME280;54941;52.220;104.306;2023-08-06T03:40:47;95219.31;;;20.78;67.96
68141;BME280;54941;52.220;104.306;2023-08-06T03:43:13;95215.34;;;21.16;66.60
68141;BME280;54941;52.220;104.306;2023-08-06T03:45:40;95223.03;;;21.43;65.80
68141;BME280;54941;52.220;104.306;2023-08-06T03:48:08;95216.78;;;22.06;63.90
68141;BME280;54941;52.220;104.306;2023-08-06T03:50:36;95218.06;;;21.27;65.66
68141;BME280;54941;52.220;104.306;2023-08-06T03:53:04;95214.88;;;22.18;62.34
68141;BME280;54941;52.220;104.306;2023-08-06T03:55:36;95211.88;;;23.43;58.12
68141;BME280;54941;52.220;104.306;2023-08-06T03:58:12;95219.66;;;23.37;57.33
68141;BME280;54941;52.220;104.306;2023-08-06T04:00:38;95203.44;;;24.72;55.15
68141;BME280;54941;52.220;104.306;2023-08-06T04:03:04;95199.44;;;24.20;56.06
68141;BME280;54941;52.220;104.306;2023-08-06T04:05:31;95203.56;;;25.17;53.85
68141;BME280;54941;52.220;104.306;2023-08-06T04:07:57;95208.50;;;25.49;51.51
68141;BME280;54941;52.220;104.306;2023-08-06T04:10:25;95191.16;;;25.70;50.63
68141;BME280;54941;52.220;104.306;2023-08-06T04:12:51;95198.22;;;24.98;52.53
68141;BME280;54941;52.220;104.306;2023-08-06T04:15:18;95196.91;;;25.12;53.10
68141;BME280;54941;52.220;104.306;2023-08-06T04:17:44;95187.59;;;25.24;51.16
68141;BME280;54941;52.220;104.306;2023-08-06T04:20:10;95188.63;;;25.41;50.15
68141;BME280;54941;52.220;104.306;2023-08-06T04:22:37;95191.66;;;25.10;52.05
68141;BME280;54941;52.220;104.306;2023-08-06T04:25:03;95193.75;;;26.33;47.65
68141;BME280;54941;52.220;104.306;2023-08-06T04:27:31;95184.09;;;26.12;48.00
68141;BME280;54941;52.220;104.306;2023-08-06T04:29:58;95187.50;;;25.16;51.44
68141;BME280;54941;52.220;104.306;2023-08-06T04:32:24;95188.19;;;24.24;52.41
68141;BME280;54941;52.220;104.306;2023-08-06T04:34:50;95178.81;;;24.28;54.18
68141;BME280;54941;52.220;104.306;2023-08-06T04:37:16;95173.41;;;25.57;51.11
68141;BME280;54941;52.220;104.306;2023-08-06T04:39:43;95185.34;;;24.55;52.93
68141;BME280;54941;52.220;104.306;2023-08-06T04:42:09;95184.81;;;24.22;53.79
68141;BME280;54941;52.220;104.306;2023-08-06T04:44:37;95174.88;;;23.94;53.88
68141;BME280;54941;52.220;104.306;2023-08-06T04:47:03;95165.53;;;23.98;53.82
68141;BME280;54941;52.220;104.306;2023-08-06T04:49:30;95167.13;;;24.57;53.50
68141;BME280;54941;52.220;104.306;2023-08-06T04:51:56;95173.34;;;24.94;51.44
68141;BME280;54941;52.220;104.306;2023-08-06T04:54:22;95163.13;;;24.61;51.41
68141;BME280;54941;52.220;104.306;2023-08-06T04:56:49;95165.34;;;24.65;52.60
68141;BME280;54941;52.220;104.306;2023-08-06T04:59:15;95169.84;;;24.47;52.20
68141;BME280;54941;52.220;104.306;2023-08-06T05:01:43;95164.31;;;24.49;53.18
68141;BME280;54941;52.220;104.306;2023-08-06T05:04:09;95158.53;;;24.98;51.03
68141;BME280;54941;52.220;104.306;2023-08-06T05:06:35;95166.06;;;25.68;52.30
68141;BME280;54941;52.220;104.306;2023-08-06T05:09:01;95158.97;;;25.49;49.94
68141;BME280;54941;52.220;104.306;2023-08-06T05:11:28;95158.97;;;25.04;50.48
68141;BME280;54941;52.220;104.306;2023-08-06T05:13:54;95154.69;;;25.28;49.44
68141;BME280;54941;52.220;104.306;2023-08-06T05:16:21;95159.28;;;24.54;52.96
68141;BME280;54941;52.220;104.306;2023-08-06T05:18:48;95156.22;;;25.13;51.08
68141;BME280;54941;52.220;104.306;2023-08-06T05:21:14;95164.31;;;24.39;53.19
68141;BME280;54941;52.220;104.306;2023-08-06T05:23:41;95149.44;;;24.72;52.88
68141;BME280;54941;52.220;104.306;2023-08-06T05:26:07;95158.19;;;24.84;52.96
68141;BME280;54941;52.220;104.306;2023-08-06T05:28:34;95147.91;;;25.42;51.30
68141;BME280;54941;52.220;104.306;2023-08-06T05:31:03;95143.66;;;25.57;50.58
68141;BME280;54941;52.220;104.306;2023-08-06T05:33:29;95149.50;;;25.35;50.94
68141;BME280;54941;52.220;104.306;2023-08-06T05:35:57;95153.81;;;25.00;49.67
68141;BME280;54941;52.220;104.306;2023-08-06T05:38:23;95149.34;;;24.91;50.36
68141;BME280;54941;52.220;104.306;2023-08-06T05:40:49;95152.00;;;24.64;51.50
68141;BME280;54941;52.220;104.306;2023-08-06T05:43:16;95145.94;;;24.89;51.65
68141;BME280;54941;52.220;104.306;2023-08-06T05:45:44;95142.97;;;24.83;52.80
68141;BME280;54941;52.220;104.306;2023-08-06T05:48:10;95146.59;;;24.64;52.85
68141;BME280;54941;52.220;104.306;2023-08-06T05:50:37;95149.19;;;24.09;53.70
68141;BME280;54941;52.220;104.306;2023-08-06T05:53:05;95147.03;;;24.32;53.59
68141;BME280;54941;52.220;104.306;2023-08-06T05:55:31;95144.06;;;24.06;54.27
68141;BME280;54941;52.220;104.306;2023-08-06T05:57:57;95135.25;;;24.04;53.18
68141;BME280;54941;52.220;104.306;2023-08-06T06:00:24;95140.47;;;24.25;52.87
68141;BME280;54941;52.220;104.306;2023-08-06T06:02:50;95139.78;;;24.13;55.50
68141;BME280;54941;52.220;104.306;2023-08-06T06:05:16;95134.69;;;24.66;50.28
68141;BME280;54941;52.220;104.306;2023-08-06T06:07:43;95133.47;;;24.41;51.40
68141;BME280;54941;52.220;104.306;2023-08-06T06:10:10;95127.00;;;24.62;50.85
68141;BME280;54941;52.220;104.306;2023-08-06T06:12:38;95126.81;;;24.46;51.40
68141;BME280;54941;52.220;104.306;2023-08-06T06:15:05;95131.41;;;24.16;51.72
68141;BME280;54941;52.220;104.306;2023-08-06T06:17:32;95123.63;;;24.03;52.47
68141;BME280;54941;52.220;104.306;2023-08-06T06:19:58;95122.22;;;23.99;52.23
68141;BME280;54941;52.220;104.306;2023-08-06T06:22:24;95117.69;;;23.71;53.28
68141;BME280;54941;52.220;104.306;2023-08-06T06:24:50;95114.72;;;23.45;54.72
68141;BME280;54941;52.220;104.306;2023-08-06T06:27:18;95108.44;;;23.83;52.81
68141;BME280;54941;52.220;104.306;2023-08-06T06:29:45;95111.13;;;22.96;55.41
68141;BME280;54941;52.220;104.306;2023-08-06T06:32:11;95112.84;;;23.45;53.68
68141;BME280;54941;52.220;104.306;2023-08-06T06:34:37;95107.34;;;23.66;53.63
68141;BME280;54941;52.220;104.306;2023-08-06T06:37:04;95102.91;;;23.94;52.25
68141;BME280;54941;52.220;104.306;2023-08-06T06:39:30;95109.19;;;23.66;52.53
68141;BME280;54941;52.220;104.306;2023-08-06T06:41:57;95097.13;;;23.70;52.16
68141;BME280;54941;52.220;104.306;2023-08-06T06:44:24;95090.66;;;24.09;50.60
68141;BME280;54941;52.220;104.306;2023-08-06T06:46:50;95092.38;;;24.01;51.42
68141;BME280;54941;52.220;104.306;2023-08-06T06:49:17;95088.47;;;23.85;51.93
68141;BME280;54941;52.220;104.306;2023-08-06T06:51:43;95085.13;;;24.01;52.18
68141;BME280;54941;52.220;104.306;2023-08-06T06:54:12;95082.78;;;24.26;50.44
68141;BME280;54941;52.220;104.306;2023-08-06T06:56:38;95087.50;;;24.61;49.32
68141;BME280;54941;52.220;104.306;2023-08-06T06:59:05;95087.31;;;24.44;49.92
68141;BME280;54941;52.220;104.306;2023-08-06T07:01:32;95081.09;;;24.34;51.59
68141;BME280;54941;52.220;104.306;2023-08-06T07:03:59;95088.50;;;24.23;51.71
68141;BME280;54941;52.220;104.306;2023-08-06T07:06:25;95088.88;;;24.65;50.38
68141;BME280;54941;52.220;104.306;2023-08-06T07:08:51;95088.44;;;24.42;50.93
68141;BME280;54941;52.220;104.306;2023-08-06T07:11:17;95086.09;;;24.20;51.64
68141;BME280;54941;52.220;104.306;2023-08-06T07:13:44;95085.34;;;24.37;51.48
68141;BME280;54941;52.220;104.306;2023-08-06T07:16:10;95084.50;;;24.64;50.15
68141;BME280;54941;52.220;104.306;2023-08-06T07:18:38;95076.53;;;24.25;50.33
68141;BME280;54941;52.220;104.306;2023-08-06T07:21:04;95071.69;;;24.29;50.64
68141;BME280;54941;52.220;104.306;2023-08-06T07:23:30;95069.44;;;24.34;50.49
68141;BME280;54941;52.220;104.306;2023-08-06T07:25:57;95072.19;;;24.52;50.37
68141;BME280;54941;52.220;104.306;2023-08-06T07:28:23;95063.88;;;24.90;49.45
68141;BME280;54941;52.220;104.306;2023-08-06T07:30:49;95074.38;;;24.38;50.63
68141;BME280;54941;52.220;104.306;2023-08-06T07:33:15;95072.50;;;24.02;51.71
68141;BME280;54941;52.220;104.306;2023-08-06T07:35:43;95074.66;;;23.89;51.92
68141;BME280;54941;52.220;104.306;2023-08-06T07:38:12;95068.63;;;24.14;52.39
68141;BME280;54941;52.220;104.306;2023-08-06T07:40:39;95074.91;;;24.05;52.34
68141;BME280;54941;52.220;104.306;2023-08-06T07:43:05;95061.31;;;23.97;52.35
68141;BME280;54941;52.220;104.306;2023-08-06T07:45:33;95068.09;;;24.10;52.72
68141;BME280;54941;52.220;104.306;2023-08-06T07:48:00;95068.09;;;24.10;52.08
68141;BME280;54941;52.220;104.306;2023-08-06T07:50:26;95065.34;;;24.20;51.99
68141;BME280;54941;52.220;104.306;2023-08-06T07:52:54;95067.56;;;23.97;53.55
68141;BME280;54941;52.220;104.306;2023-08-06T07:55:20;95062.69;;;24.10;52.95
68141;BME280;54941;52.220;104.306;2023-08-06T07:57:46;95063.19;;;24.24;51.96
68141;BME280;54941;52.220;104.306;2023-08-06T08:00:13;95067.59;;;24.25;51.78
68141;BME280;54941;52.220;104.306;2023-08-06T08:02:40;95063.75;;;24.37;51.92
68141;BME280;54941;52.220;104.306;2023-08-06T08:05:06;95066.84;;;24.42;51.92
68141;BME280;54941;52.220;104.306;2023-08-06T08:07:33;95066.56;;;24.45;51.23
68141;BME280;54941;52.220;104.306;2023-08-06T08:10:00;95067.44;;;24.36;51.92
68141;BME280;54941;52.220;104.306;2023-08-06T08:12:27;95067.44;;;24.26;51.92
68141;BME280;54941;52.220;104.306;2023-08-06T08:14:53;95063.38;;;24.12;52.25
68141;BME280;54941;52.220;104.306;2023-08-06T08:17:19;95064.41;;;24.02;53.14
68141;BME280;54941;52.220;104.306;2023-08-06T08:19:45;95059.66;;;24.23;52.35
68141;BME280;54941;52.220;104.306;2023-08-06T08:22:14;95055.09;;;24.24;52.01
68141;BME280;54941;52.220;104.306;2023-08-06T08:24:40;95061.34;;;23.87;53.07
68141;BME280;54941;52.220;104.306;2023-08-06T08:27:07;95054.97;;;24.15;52.46
68141;BME280;54941;52.220;104.306;2023-08-06T08:29:34;95049.50;;;24.44;52.80
68141;BME280;54941;52.220;104.306;2023-08-06T08:32:00;95052.44;;;24.51;52.83
68141;BME280;54941;52.220;104.306;2023-08-06T08:34:26;95052.69;;;24.30;53.15
68141;BME280;54941;52.220;104.306;2023-08-06T08:36:53;95055.50;;;24.38;52.80
68141;BME280;54941;52.220;104.306;2023-08-06T08:39:19;95055.13;;;24.14;52.95
68141;BME280;54941;52.220;104.306;2023-08-06T08:41:54;95049.56;;;23.69;55.83
68141;BME280;54941;52.220;104.306;2023-08-06T08:44:22;95056.13;;;24.13;54.15
68141;BME280;54941;52.220;104.306;2023-08-06T08:46:57;95058.69;;;24.52;51.11
68141;BME280;54941;52.220;104.306;2023-08-06T08:49:24;95047.84;;;24.34;51.49
68141;BME280;54941;52.220;104.306;2023-08-06T08:51:53;95059.88;;;24.30;51.54
68141;BME280;54941;52.220;104.306;2023-08-06T08:54:23;95066.66;;;24.06;52.15
68141;BME280;54941;52.220;104.306;2023-08-06T08:56:50;95069.09;;;24.00;53.48
68141;BME280;54941;52.220;104.306;2023-08-06T08:59:16;95063.13;;;23.96;53.05
68141;BME280;54941;52.220;104.306;2023-08-06T09:01:46;95062.59;;;23.83;53.37
68141;BME280;54941;52.220;104.306;2023-08-06T09:04:14;95061.19;;;23.89;55.28
68141;BME280;54941;52.220;104.306;2023-08-06T09:06:42;95051.56;;;23.76;53.76
68141;BME280;54941;52.220;104.306;2023-08-06T09:09:12;95046.56;;;23.81;52.72
68141;BME280;54941;52.220;104.306;2023-08-06T09:11:43;95048.00;;;23.76;53.48
68141;BME280;54941;52.220;104.306;2023-08-06T09:14:10;95049.97;;;23.83;53.17
68141;BME280;54941;52.220;104.306;2023-08-06T09:16:37;95058.91;;;23.84;53.84
68141;BME280;54941;52.220;104.306;2023-08-06T09:19:12;95056.53;;;23.71;53.36
68141;BME280;54941;52.220;104.306;2023-08-06T09:21:39;95047.47;;;23.63;53.08
68141;BME280;54941;52.220;104.306;2023-08-06T09:24:09;95045.47;;;23.65;53.50
68141;BME280;54941;52.220;104.306;2023-08-06T09:26:36;95045.53;;;23.92;52.21
68141;BME280;54941;52.220;104.306;2023-08-06T09:29:05;95055.97;;;23.77;53.10
68141;BME280;54941;52.220;104.306;2023-08-06T09:31:33;95054.94;;;23.88;53.40
68141;BME280;54941;52.220;104.306;2023-08-06T09:34:00;95053.41;;;23.76;53.75
68141;BME280;54941;52.220;104.306;2023-08-06T09:36:28;95052.56;;;23.75;54.36
68141;BME280;54941;52.220;104.306;2023-08-06T09:38:54;95048.72;;;23.78;54.15
68141;BME280;54941;52.220;104.306;2023-08-06T09:41:26;95052.56;;;23.56;55.16
68141;BME280;54941;52.220;104.306;2023-08-06T09:43:53;95044.78;;;23.63;55.60
68141;BME280;54941;52.220;104.306;2023-08-06T09:46:19;95046.88;;;23.78;54.08
68141;BME280;54941;52.220;104.306;2023-08-06T09:48:46;95042.34;;;23.60;53.77
68141;BME280;54941;52.220;104.306;2023-08-06T09:51:13;95048.59;;;23.50;54.87
68141;BME280;54941;52.220;104.306;2023-08-06T09:53:42;95050.88;;;23.65;55.56
68141;BME280;54941;52.220;104.306;2023-08-06T09:56:09;95051.72;;;23.65;54.80
68141;BME280;54941;52.220;104.306;2023-08-06T09:58:38;95051.63;;;23.94;53.54
68141;BME280;54941;52.220;104.306;2023-08-06T10:01:05;95057.06;;;23.84;54.92
68141;BME280;54941;52.220;104.306;2023-08-06T10:03:32;95056.19;;;23.94;54.07
68141;BME280;54941;52.220;104.306;2023-08-06T10:06:00;95061.38;;;24.14;53.39
68141;BME280;54941;52.220;104.306;2023-08-06T10:08:26;95051.84;;;24.20;52.21
68141;BME280;54941;52.220;104.306;2023-08-06T10:10:54;95044.72;;;23.82;53.65
68141;BME280;54941;52.220;104.306;2023-08-06T10:13:21;95042.97;;;24.00;53.02
68141;BME280;54941;52.220;104.306;2023-08-06T10:15:49;95045.03;;;23.79;53.37
68141;BME280;54941;52.220;104.306;2023-08-06T10:18:17;95043.63;;;23.46;55.84
68141;BME280;54941;52.220;104.306;2023-08-06T10:20:44;95036.69;;;23.14;58.01
68141;BME280;54941;52.220;104.306;2023-08-06T10:23:10;95045.47;;;22.97;57.40
68141;BME280;54941;52.220;104.306;2023-08-06T10:25:40;95048.25;;;22.76;62.75
68141;BME280;54941;52.220;104.306;2023-08-06T10:28:09;95052.88;;;22.55;67.33
68141;BME280;54941;52.220;104.306;2023-08-06T10:30:41;95042.28;;;22.23;69.88
68141;BME280;54941;52.220;104.306;2023-08-06T10:33:08;95050.78;;;21.97;70.74
68141;BME280;54941;52.220;104.306;2023-08-06T10:35:40;95050.88;;;21.86;71.66
68141;BME280;54941;52.220;104.306;2023-08-06T10:38:09;95047.56;;;21.73;72.28
68141;BME280;54941;52.220;104.306;2023-08-06T10:40:36;95052.44;;;21.58;73.62
68141;BME280;54941;52.220;104.306;2023-08-06T10:43:03;95053.91;;;21.30;75.31
68141;BME280;54941;52.220;104.306;2023-08-06T10:45:34;95052.38;;;21.16;77.64
68141;BME280;54941;52.220;104.306;2023-08-06T10:48:00;95045.44;;;21.14;77.77
68141;BME280;54941;52.220;104.306;2023-08-06T10:50:27;95051.16;;;20.88;79.15
68141;BME280;54941;52.220;104.306;2023-08-06T10:52:53;95052.41;;;20.84;79.15
68141;BME280;54941;52.220;104.306;2023-08-06T10:55:25;95052.66;;;20.70;79.70
68141;BME280;54941;52.220;104.306;2023-08-06T10:57:52;95048.03;;;20.72;79.62
68141;BME280;54941;52.220;104.306;2023-08-06T11:00:20;95053.88;;;20.77;80.07
68141;BME280;54941;52.220;104.306;2023-08-06T11:02:48;95048.97;;;20.82;79.90
68141;BME280;54941;52.220;104.306;2023-08-06T11:05:15;95049.78;;;20.94;79.09
68141;BME280;54941;52.220;104.306;2023-08-06T11:07:41;95057.44;;;21.10;78.71
68141;BME280;54941;52.220;104.306;2023-08-06T11:10:08;95053.03;;;21.09;78.67
68141;BME280;54941;52.220;104.306;2023-08-06T11:12:35;95053.69;;;21.22;78.02
68141;BME280;54941;52.220;104.306;2023-08-06T11:15:03;95058.56;;;21.28;77.86
68141;BME280;54941;52.220;104.306;2023-08-06T11:17:34;95065.13;;;21.35;76.86
68141;BME280;54941;52.220;104.306;2023-08-06T11:20:04;95058.66;;;21.38;76.55
68141;BME280;54941;52.220;104.306;2023-08-06T11:22:34;95067.97;;;21.54;77.41
68141;BME280;54941;52.220;104.306;2023-08-06T11:25:01;95063.31;;;21.57;77.72
68141;BME280;54941;52.220;104.306;2023-08-06T11:27:31;95066.00;;;21.57;77.95
68141;BME280;54941;52.220;104.306;2023-08-06T11:29:58;95069.41;;;21.59;77.71
68141;BME280;54941;52.220;104.306;2023-08-06T11:32:24;95062.06;;;21.61;71.92
68141;BME280;54941;52.220;104.306;2023-08-06T11:34:52;95066.56;;;21.81;73.86
68141;BME280;54941;52.220;104.306;2023-08-06T11:37:22;95074.09;;;21.87;74.83
68141;BME280;54941;52.220;104.306;2023-08-06T11:39:49;95065.31;;;21.64;76.25
68141;BME280;54941;52.220;104.306;2023-08-06T11:42:16;95076.53;;;21.48;77.27
68141;BME280;54941;52.220;104.306;2023-08-06T11:44:42;95066.50;;;21.30;78.00
68141;BME280;54941;52.220;104.306;2023-08-06T11:47:12;95074.22;;;21.23;79.07
68141;BME280;54941;52.220;104.306;2023-08-06T11:49:43;95082.22;;;21.02;79.04
68141;BME280;54941;52.220;104.306;2023-08-06T11:52:13;95090.06;;;20.94;79.53
68141;BME280;54941;52.220;104.306;2023-08-06T11:54:41;95080.47;;;20.80;79.82
68141;BME280;54941;52.220;104.306;2023-08-06T11:57:07;95086.47;;;20.73;79.07
68141;BME280;54941;52.220;104.306;2023-08-06T11:59:34;95088.41;;;20.71;78.99
68141;BME280;54941;52.220;104.306;2023-08-06T12:02:02;95088.50;;;20.80;79.04
68141;BME280;54941;52.220;104.306;2023-08-06T12:04:28;95092.72;;;20.62;81.33
68141;BME280;54941;52.220;104.306;2023-08-06T12:06:54;95095.16;;;20.54;81.03
68141;BME280;54941;52.220;104.306;2023-08-06T12:09:20;95097.88;;;20.43;81.69
68141;BME280;54941;52.220;104.306;2023-08-06T12:11:48;95097.25;;;20.17;83.71
68141;BME280;54941;52.220;104.306;2023-08-06T12:14:14;95101.38;;;20.09;83.57
68141;BME280;54941;52.220;104.306;2023-08-06T12:16:41;95107.56;;;19.88;84.95
68141;BME280;54941;52.220;104.306;2023-08-06T12:19:07;95106.56;;;19.77;84.86
68141;BME280;54941;52.220;104.306;2023-08-06T12:21:33;95110.09;;;19.78;85.33
68141;BME280;54941;52.220;104.306;2023-08-06T12:23:59;95102.72;;;19.81;85.77
68141;BME280;54941;52.220;104.306;2023-08-06T12:26:26;95104.25;;;19.62;86.76
68141;BME280;54941;52.220;104.306;2023-08-06T12:28:53;95099.66;;;19.40;87.44
68141;BME280;54941;52.220;104.306;2023-08-06T12:31:20;95104.53;;;19.35;87.68
68141;BME280;54941;52.220;104.306;2023-08-06T12:33:46;95103.63;;;19.23;88.77
68141;BME280;54941;52.220;104.306;2023-08-06T12:36:12;95106.41;;;19.21;88.66
68141;BME280;54941;52.220;104.306;2023-08-06T12:38:38;95110.75;;;19.11;88.16
68141;BME280;54941;52.220;104.306;2023-08-06T12:41:05;95111.88;;;18.96;88.64